createdAt,value
2022-08-18T00:00:25.078Z,13.22
2022-08-18T00:01:25.106Z,13.10
2022-08-18T00:02:30.006Z,12.93
2022-08-18T00:03:53.410Z,12.96
2022-08-18T00:04:35.665Z,12.96
2022-08-18T00:05:25.145Z,12.97
2022-08-18T00:06:27.114Z,13.10
2022-08-18T00:07:25.180Z,13.07
2022-08-18T00:08:25.195Z,13.08
2022-08-18T00:09:28.902Z,13.05
2022-08-18T00:10:25.225Z,13.11
2022-08-18T00:11:25.237Z,13.19
2022-08-18T00:12:25.251Z,13.05
2022-08-18T00:13:25.278Z,13.08
2022-08-18T00:14:25.283Z,13.11
2022-08-18T00:15:25.298Z,13.07
2022-08-18T00:16:25.314Z,13.07
2022-08-18T00:17:25.326Z,12.96
2022-08-18T00:18:25.343Z,12.93
2022-08-18T00:19:45.491Z,12.96
2022-08-18T00:20:25.373Z,13.01
2022-08-18T00:21:25.386Z,13.00
2022-08-18T00:22:25.407Z,13.00
2022-08-18T00:23:25.418Z,12.96
2022-08-18T00:24:25.427Z,12.83
2022-08-18T00:25:25.445Z,12.83
2022-08-18T00:26:25.463Z,12.90
2022-08-18T00:27:28.386Z,12.87
2022-08-18T00:28:25.493Z,12.92
2022-08-18T00:29:25.510Z,13.00
2022-08-18T00:30:25.525Z,12.93
2022-08-18T00:31:25.534Z,13.04
2022-08-18T00:32:25.551Z,12.92
2022-08-18T00:33:25.563Z,13.01
2022-08-18T00:34:25.580Z,13.05
2022-08-18T00:35:25.593Z,13.05
2022-08-18T00:36:25.613Z,13.11
2022-08-18T00:37:25.627Z,13.04
2022-08-18T00:38:25.780Z,13.11
2022-08-18T00:39:25.655Z,13.05
2022-08-18T00:40:25.764Z,13.08
2022-08-18T00:41:25.681Z,13.10
2022-08-18T00:42:27.309Z,13.12
2022-08-18T00:43:25.719Z,13.07
2022-08-18T00:44:25.727Z,13.11
2022-08-18T00:45:25.743Z,13.22
2022-08-18T00:46:25.761Z,13.25
2022-08-18T00:47:33.135Z,13.19
2022-08-18T00:48:25.788Z,13.33
2022-08-18T00:49:25.804Z,13.36
2022-08-18T00:50:25.814Z,13.33
2022-08-18T00:51:25.830Z,13.26
2022-08-18T00:52:25.844Z,13.29
2022-08-18T00:53:25.861Z,13.28
2022-08-18T00:54:25.876Z,13.28
2022-08-18T00:55:26.414Z,13.26
2022-08-18T00:56:25.905Z,13.26
2022-08-18T00:57:26.022Z,13.36
2022-08-18T00:58:25.939Z,13.30
2022-08-18T00:59:25.947Z,13.29
2022-08-18T01:00:26.103Z,13.25
2022-08-18T01:01:26.069Z,13.26
2022-08-18T01:02:25.994Z,13.36
2022-08-18T01:03:26.005Z,13.26
2022-08-18T01:04:26.026Z,13.29
2022-08-18T01:05:26.040Z,13.29
2022-08-18T01:06:26.052Z,13.19
2022-08-18T01:07:26.074Z,13.19
2022-08-18T01:08:28.559Z,13.12
2022-08-18T01:09:26.103Z,13.15
2022-08-18T01:10:26.120Z,13.12
2022-08-18T01:11:26.232Z,13.23
2022-08-18T01:12:45.575Z,13.10
2022-08-18T01:13:26.167Z,12.92
2022-08-18T01:14:26.172Z,13.03
2022-08-18T01:15:29.116Z,13.00
2022-08-18T01:16:26.300Z,12.89
2022-08-18T01:17:26.219Z,12.85
2022-08-18T01:18:26.231Z,12.79
2022-08-18T01:19:26.250Z,12.79
2022-08-18T01:20:26.267Z,12.71
2022-08-18T01:21:26.275Z,12.72
2022-08-18T01:22:26.296Z,12.65
2022-08-18T01:23:26.310Z,12.65
2022-08-18T01:24:26.322Z,12.62
2022-08-18T01:25:26.562Z,12.65
2022-08-18T01:26:26.352Z,12.70
2022-08-18T01:27:26.373Z,12.77
2022-08-18T01:28:26.378Z,12.74
2022-08-18T01:29:26.395Z,12.74
2022-08-18T01:30:26.411Z,12.70
2022-08-18T01:31:26.433Z,12.74
2022-08-18T01:32:26.467Z,12.67
2022-08-18T01:33:26.733Z,12.62
2022-08-18T01:34:26.477Z,12.64
2022-08-18T01:35:26.483Z,12.59
2022-08-18T01:36:26.497Z,12.59
2022-08-18T01:37:26.523Z,12.49
2022-08-18T01:38:26.530Z,12.54
2022-08-18T01:41:12.876Z,12.49
2022-08-18T01:41:22.244Z,12.47
2022-08-18T01:41:30.282Z,12.41
2022-08-18T01:42:26.587Z,12.46
2022-08-18T01:43:26.606Z,12.38
2022-08-18T01:44:26.618Z,12.41
2022-08-18T01:45:26.630Z,12.50
2022-08-18T01:46:26.650Z,12.46
2022-08-18T01:47:26.658Z,12.47
2022-08-18T01:48:26.674Z,12.50
2022-08-18T01:49:26.693Z,12.59
2022-08-18T01:50:26.701Z,12.54
2022-08-18T01:51:40.025Z,12.64
2022-08-18T01:52:26.760Z,12.59
2022-08-18T01:53:26.850Z,12.64
2022-08-18T01:54:26.767Z,12.64
2022-08-18T01:55:26.780Z,12.70
2022-08-18T01:56:26.795Z,12.70
2022-08-18T01:57:26.809Z,12.64
2022-08-18T01:58:31.057Z,12.62
2022-08-18T01:59:26.837Z,12.65
2022-08-18T02:00:26.848Z,12.70
2022-08-18T02:01:36.539Z,12.62
2022-08-18T02:02:27.077Z,12.67
2022-08-18T02:03:26.895Z,12.65
2022-08-18T02:04:36.050Z,12.60
2022-08-18T02:05:26.931Z,12.64
2022-08-18T02:06:33.575Z,12.56
2022-08-18T02:07:32.609Z,12.45
2022-08-18T02:08:28.164Z,12.53
2022-08-18T02:09:26.980Z,12.53
2022-08-18T02:10:26.995Z,12.39
2022-08-18T02:11:27.008Z,12.39
2022-08-18T02:12:27.026Z,12.34
2022-08-18T02:13:27.040Z,12.27
2022-08-18T02:14:27.508Z,12.24
2022-08-18T02:15:27.065Z,12.20
2022-08-18T02:16:27.094Z,12.23
2022-08-18T02:17:27.093Z,12.27
2022-08-18T02:18:46.884Z,12.31
2022-08-18T02:19:27.123Z,12.31
2022-08-18T02:20:27.139Z,12.37
2022-08-18T02:21:27.159Z,12.41
2022-08-18T02:22:27.172Z,12.49
2022-08-18T02:23:27.184Z,12.38
2022-08-18T02:24:27.195Z,12.53
2022-08-18T02:25:27.213Z,12.50
2022-08-18T02:26:27.237Z,12.56
2022-08-18T02:27:27.246Z,12.59
2022-08-18T02:28:30.601Z,12.59
2022-08-18T02:29:27.271Z,12.59
2022-08-18T02:30:27.290Z,12.53
2022-08-18T02:31:27.302Z,12.56
2022-08-18T02:32:27.312Z,12.54
2022-08-18T02:33:27.327Z,12.64
2022-08-18T02:34:27.339Z,12.57
2022-08-18T02:35:27.356Z,12.56
2022-08-18T02:36:27.378Z,12.46
2022-08-18T02:37:27.394Z,11.95
2022-08-18T02:38:27.400Z,11.60
2022-08-18T02:39:27.471Z,11.28
2022-08-18T02:40:27.426Z,11.17
2022-08-18T02:41:27.443Z,11.21
2022-08-18T02:42:27.454Z,11.14
2022-08-18T02:43:27.481Z,11.19
2022-08-18T02:44:27.486Z,11.21
2022-08-18T02:45:27.499Z,11.29
2022-08-18T02:46:30.130Z,11.29
2022-08-18T02:47:33.010Z,11.37
2022-08-18T02:48:27.538Z,11.46
2022-08-18T02:49:27.557Z,11.43
2022-08-18T02:50:27.617Z,11.29
2022-08-18T02:51:27.603Z,11.37
2022-08-18T02:52:27.594Z,11.42
2022-08-18T02:53:27.612Z,11.43
2022-08-18T02:54:27.627Z,11.49
2022-08-18T02:55:27.637Z,11.54
2022-08-18T02:56:32.829Z,11.61
2022-08-18T02:57:27.668Z,11.67
2022-08-18T02:58:31.828Z,11.78
2022-08-18T02:59:27.982Z,11.83
2022-08-18T03:00:27.707Z,11.80
2022-08-18T03:01:27.799Z,11.88
2022-08-18T03:02:27.734Z,11.94
2022-08-18T03:03:27.754Z,11.95
2022-08-18T03:04:29.526Z,12.07
2022-08-18T03:05:27.776Z,12.09
2022-08-18T03:06:27.787Z,12.21
2022-08-18T03:07:27.802Z,12.17
2022-08-18T03:08:27.814Z,12.24
2022-08-18T03:09:27.828Z,12.37
2022-08-18T03:10:32.386Z,12.34
2022-08-18T03:11:27.858Z,12.39
2022-08-18T03:12:27.881Z,12.41
2022-08-18T03:13:27.887Z,12.29
2022-08-18T03:14:27.900Z,12.29
2022-08-18T03:15:28.119Z,12.38
2022-08-18T03:16:27.925Z,12.37
2022-08-18T03:17:27.941Z,12.32
2022-08-18T03:18:27.956Z,12.28
2022-08-18T03:19:27.967Z,12.23
2022-08-18T03:20:30.148Z,12.23
2022-08-18T03:21:27.995Z,12.21
2022-08-18T03:22:32.387Z,12.21
2022-08-18T03:23:30.231Z,12.20
2022-08-18T03:24:28.048Z,12.19
2022-08-18T03:25:28.050Z,12.21
2022-08-18T03:26:28.066Z,12.23
2022-08-18T03:27:28.084Z,12.27
2022-08-18T03:28:28.091Z,12.17
2022-08-18T03:29:32.369Z,12.28
2022-08-18T03:30:28.116Z,12.27
2022-08-18T03:31:28.264Z,12.29
2022-08-18T03:32:28.148Z,12.14
2022-08-18T03:33:28.163Z,12.19
2022-08-18T03:34:28.180Z,12.13
2022-08-18T03:35:28.190Z,12.16
2022-08-18T03:36:28.202Z,12.17
2022-08-18T03:37:28.220Z,12.34
2022-08-18T03:38:28.235Z,12.17
2022-08-18T03:39:28.370Z,12.20
2022-08-18T03:40:28.261Z,12.10
2022-08-18T03:41:56.992Z,12.07
2022-08-18T03:42:28.290Z,12.04
2022-08-18T03:43:50.824Z,11.96
2022-08-18T03:44:28.315Z,11.91
2022-08-18T03:45:28.328Z,11.86
2022-08-18T03:46:28.344Z,11.95
2022-08-18T03:47:28.360Z,11.98
2022-08-18T03:48:28.371Z,12.01
2022-08-18T03:49:28.394Z,12.02
2022-08-18T03:50:28.399Z,12.07
2022-08-18T03:51:28.413Z,12.02
2022-08-18T03:52:28.429Z,12.05
2022-08-18T03:53:28.445Z,12.05
2022-08-18T03:54:28.452Z,12.10
2022-08-18T03:55:28.476Z,12.14
2022-08-18T03:56:28.476Z,12.16
2022-08-18T03:57:28.494Z,12.16
2022-08-18T03:58:28.514Z,11.96
2022-08-18T03:59:28.550Z,11.95
2022-08-18T04:00:28.538Z,11.95
2022-08-18T04:01:28.644Z,11.95
2022-08-18T04:02:28.569Z,12.02
2022-08-18T04:03:28.580Z,11.98
2022-08-18T04:04:28.729Z,11.96
2022-08-18T04:05:28.607Z,12.04
2022-08-18T04:06:29.905Z,11.96
2022-08-18T04:07:28.636Z,12.07
2022-08-18T04:08:28.652Z,11.98
2022-08-18T04:09:28.664Z,12.13
2022-08-18T04:10:28.681Z,12.05
2022-08-18T04:11:28.690Z,12.09
2022-08-18T04:12:28.706Z,12.10
2022-08-18T04:13:28.748Z,12.10
2022-08-18T04:14:28.738Z,12.10
2022-08-18T04:15:28.746Z,12.20
2022-08-18T04:16:28.771Z,12.05
2022-08-18T04:17:28.779Z,12.02
2022-08-18T04:18:28.789Z,12.02
2022-08-18T04:19:28.804Z,12.07
2022-08-18T04:20:28.822Z,12.16
2022-08-18T04:21:28.835Z,12.10
2022-08-18T04:22:28.950Z,12.10
2022-08-18T04:23:28.865Z,12.10
2022-08-18T04:24:29.749Z,12.16
2022-08-18T04:25:32.750Z,12.19
2022-08-18T04:26:28.906Z,12.19
2022-08-18T04:27:28.925Z,12.09
2022-08-18T04:28:28.934Z,12.17
2022-08-18T04:29:28.952Z,12.16
2022-08-18T04:30:28.961Z,12.19
2022-08-18T04:31:28.982Z,12.17
2022-08-18T04:32:30.000Z,12.16
2022-08-18T04:33:29.000Z,11.99
2022-08-18T04:34:29.122Z,11.96
2022-08-18T04:35:29.150Z,11.99
2022-08-18T04:36:29.052Z,11.98
2022-08-18T04:37:29.060Z,11.98
2022-08-18T04:38:29.074Z,11.94
2022-08-18T04:39:29.188Z,11.90
2022-08-18T04:40:29.188Z,11.91
2022-08-18T04:41:29.119Z,11.95
2022-08-18T04:42:29.136Z,12.04
2022-08-18T04:43:29.143Z,12.04
2022-08-18T04:44:29.163Z,11.98
2022-08-18T04:45:29.181Z,12.02
2022-08-18T04:46:29.184Z,11.99
2022-08-18T04:47:29.197Z,12.04
2022-08-18T04:48:29.216Z,12.09
2022-08-18T04:49:29.224Z,12.02
2022-08-18T04:50:29.245Z,12.07
2022-08-18T04:52:34.540Z,12.05
2022-08-18T04:52:40.266Z,12.13
2022-08-18T04:53:29.288Z,12.05
2022-08-18T04:54:29.297Z,12.10
2022-08-18T04:55:29.313Z,12.12
2022-08-18T04:56:29.325Z,12.16
2022-08-18T04:57:29.350Z,12.13
2022-08-18T04:58:29.357Z,12.17
2022-08-18T04:59:29.375Z,12.17
2022-08-18T05:00:29.385Z,12.14
2022-08-18T05:01:29.476Z,12.19
2022-08-18T05:02:29.416Z,12.10
2022-08-18T05:03:29.428Z,12.10
2022-08-18T05:04:29.442Z,12.02
2022-08-18T05:05:29.454Z,12.01
2022-08-18T05:06:29.468Z,11.99
2022-08-18T05:07:29.482Z,12.04
2022-08-18T05:08:29.493Z,11.96
2022-08-18T05:09:29.510Z,11.94
2022-08-18T05:10:29.522Z,11.94
2022-08-18T05:11:29.537Z,11.95
2022-08-18T05:12:29.551Z,11.95
2022-08-18T05:13:29.563Z,11.94
2022-08-18T05:14:29.579Z,11.94
2022-08-18T05:15:42.137Z,11.95
2022-08-18T05:16:29.605Z,11.99
2022-08-18T05:17:31.074Z,11.98
2022-08-18T05:18:29.639Z,12.04
2022-08-18T05:19:29.649Z,11.96
2022-08-18T05:20:29.662Z,11.99
2022-08-18T05:21:29.689Z,12.02
2022-08-18T05:22:31.196Z,12.05
2022-08-18T05:23:29.705Z,12.01
2022-08-18T05:24:36.962Z,11.85
2022-08-18T05:25:29.743Z,11.73
2022-08-18T05:26:29.751Z,11.65
2022-08-18T05:27:29.763Z,11.79
2022-08-18T05:28:29.771Z,11.70
2022-08-18T05:29:30.000Z,11.76
2022-08-18T05:30:29.805Z,11.80
2022-08-18T05:31:29.816Z,11.82
2022-08-18T05:32:37.310Z,11.86
2022-08-18T05:33:29.896Z,11.88
2022-08-18T05:34:29.861Z,11.83
2022-08-18T05:35:29.873Z,11.83
2022-08-18T05:36:29.887Z,11.95
2022-08-18T05:37:29.899Z,11.86
2022-08-18T05:38:30.020Z,11.88
2022-08-18T05:39:30.015Z,11.85
2022-08-18T05:40:29.943Z,11.75
2022-08-18T05:41:29.967Z,11.73
2022-08-18T05:42:29.969Z,11.67
2022-08-18T05:43:29.985Z,11.67
2022-08-18T05:44:29.996Z,11.73
2022-08-18T05:45:30.012Z,11.72
2022-08-18T05:46:30.026Z,11.69
2022-08-18T05:47:30.058Z,11.78
2022-08-18T05:48:30.057Z,11.80
2022-08-18T05:49:30.067Z,11.86
2022-08-18T05:50:30.083Z,11.86
2022-08-18T05:51:30.121Z,11.90
2022-08-18T05:52:30.114Z,11.91
2022-08-18T05:53:30.126Z,11.99
2022-08-18T05:54:30.139Z,11.99
2022-08-18T05:55:30.149Z,11.90
2022-08-18T05:56:30.160Z,11.94
2022-08-18T05:57:30.182Z,12.01
2022-08-18T05:58:33.334Z,11.88
2022-08-18T05:59:30.205Z,11.95
2022-08-18T06:00:30.220Z,11.86
2022-08-18T06:01:30.260Z,11.85
2022-08-18T06:02:30.295Z,11.90
2022-08-18T06:03:30.513Z,11.90
2022-08-18T06:04:30.282Z,11.94
2022-08-18T06:05:30.299Z,11.91
2022-08-18T06:06:30.320Z,12.01
2022-08-18T06:07:33.397Z,11.99
2022-08-18T06:08:30.333Z,12.07
2022-08-18T06:09:30.347Z,12.12
2022-08-18T06:10:30.362Z,12.28
2022-08-18T06:11:30.373Z,12.29
2022-08-18T06:12:30.388Z,12.42
2022-08-18T06:13:30.405Z,12.46
2022-08-18T06:14:30.419Z,12.52
2022-08-18T06:15:30.432Z,12.53
2022-08-18T06:16:30.447Z,12.64
2022-08-18T06:17:30.461Z,12.64
2022-08-18T06:18:30.576Z,12.65
2022-08-18T06:19:30.485Z,12.67
2022-08-18T06:20:30.501Z,12.64
2022-08-18T06:21:30.517Z,12.60
2022-08-18T06:22:31.413Z,12.53
2022-08-18T06:23:30.542Z,12.64
2022-08-18T06:24:30.573Z,12.50
2022-08-18T06:25:30.573Z,12.59
2022-08-18T06:26:30.615Z,12.53
2022-08-18T06:27:30.605Z,12.53
2022-08-18T06:28:30.619Z,12.52
2022-08-18T06:29:30.625Z,12.56
2022-08-18T06:30:30.641Z,12.67
2022-08-18T06:31:30.658Z,12.70
2022-08-18T06:32:30.671Z,12.70
2022-08-18T06:33:30.689Z,12.77
2022-08-18T06:34:30.700Z,12.77
2022-08-18T06:35:30.714Z,12.79
2022-08-18T06:36:30.729Z,12.72
2022-08-18T06:37:30.747Z,12.78
2022-08-18T06:38:30.760Z,12.59
2022-08-18T06:39:30.830Z,12.54
2022-08-18T06:40:30.795Z,12.64
2022-08-18T06:41:40.625Z,12.57
2022-08-18T06:42:30.827Z,12.42
2022-08-18T06:43:30.831Z,12.41
2022-08-18T06:44:30.843Z,12.50
2022-08-18T06:45:33.866Z,12.52
2022-08-18T06:46:30.870Z,12.50
2022-08-18T06:47:30.888Z,12.53
2022-08-18T06:48:30.901Z,12.60
2022-08-18T06:49:30.914Z,12.67
2022-08-18T06:50:30.933Z,12.77
2022-08-18T06:51:30.962Z,12.79
2022-08-18T06:52:30.985Z,12.93
2022-08-18T06:53:30.974Z,12.93
2022-08-18T06:54:30.983Z,13.04
2022-08-18T06:55:31.001Z,13.08
2022-08-18T06:56:31.016Z,13.15
2022-08-18T06:57:31.049Z,13.22
2022-08-18T06:58:31.059Z,13.22
2022-08-18T06:59:31.062Z,13.20
2022-08-18T07:00:32.428Z,13.12
2022-08-18T07:01:31.165Z,13.17
2022-08-18T07:02:31.107Z,13.17
2022-08-18T07:03:31.120Z,13.22
2022-08-18T07:04:31.144Z,13.23
2022-08-18T07:05:31.153Z,13.22
2022-08-18T07:06:31.165Z,13.15
2022-08-18T07:07:40.447Z,13.12
2022-08-18T07:08:31.187Z,13.25
2022-08-18T07:09:31.205Z,13.36
2022-08-18T07:10:31.213Z,13.32
2022-08-18T07:11:31.231Z,13.22
2022-08-18T07:12:32.976Z,13.25
2022-08-18T07:13:31.261Z,13.20
2022-08-18T07:14:31.273Z,13.28
2022-08-18T07:15:31.285Z,13.36
2022-08-18T07:16:56.709Z,13.25
2022-08-18T07:17:43.132Z,13.23
2022-08-18T07:18:31.333Z,13.26
2022-08-18T07:19:31.342Z,13.29
2022-08-18T07:20:31.362Z,13.30
2022-08-18T07:21:31.374Z,13.30
2022-08-18T07:22:39.660Z,13.23
2022-08-18T07:23:31.404Z,13.14
2022-08-18T07:24:31.420Z,13.29
2022-08-18T07:25:31.434Z,13.26
2022-08-18T07:26:31.448Z,13.26
2022-08-18T07:27:31.461Z,13.30
2022-08-18T07:28:31.476Z,13.33
2022-08-18T07:29:31.493Z,13.46
2022-08-18T07:30:31.512Z,13.64
2022-08-18T07:31:31.519Z,13.63
2022-08-18T07:32:31.538Z,13.60
2022-08-18T07:33:31.550Z,13.49
2022-08-18T07:34:31.564Z,13.46
2022-08-18T07:35:31.578Z,13.45
2022-08-18T07:36:31.595Z,13.46
2022-08-18T07:37:31.606Z,13.46
2022-08-18T07:38:42.495Z,13.62
2022-08-18T07:39:31.747Z,13.44
2022-08-18T07:40:31.659Z,13.25
2022-08-18T07:41:31.665Z,13.14
2022-08-18T07:42:33.184Z,13.28
2022-08-18T07:43:31.699Z,13.30
2022-08-18T07:44:31.710Z,13.30
2022-08-18T07:45:31.725Z,13.32
2022-08-18T07:46:31.738Z,13.29
2022-08-18T07:47:31.754Z,13.28
2022-08-18T07:48:38.798Z,13.41
2022-08-18T07:49:31.787Z,13.48
2022-08-18T07:50:58.565Z,13.60
2022-08-18T07:51:36.973Z,13.59
2022-08-18T07:52:36.142Z,13.73
2022-08-18T07:53:31.847Z,13.75
2022-08-18T07:54:48.965Z,13.84
2022-08-18T07:55:31.868Z,13.88
2022-08-18T07:56:31.890Z,13.81
2022-08-18T07:57:31.904Z,13.75
2022-08-18T07:58:31.915Z,13.78
2022-08-18T07:59:31.930Z,13.69
2022-08-18T08:01:00.737Z,13.92
2022-08-18T08:01:33.743Z,13.91
2022-08-18T08:02:31.976Z,14.06
2022-08-18T08:03:32.018Z,14.14
2022-08-18T08:04:32.005Z,14.24
2022-08-18T08:05:32.022Z,14.25
2022-08-18T08:06:32.035Z,14.43
2022-08-18T08:07:32.048Z,14.10
2022-08-18T08:08:32.064Z,14.04
2022-08-18T08:09:32.080Z,14.09
2022-08-18T08:10:32.092Z,13.77
2022-08-18T08:11:32.113Z,13.59
2022-08-18T08:12:32.120Z,13.73
2022-08-18T08:13:53.966Z,14.00
2022-08-18T08:14:32.153Z,14.10
2022-08-18T08:15:32.166Z,14.24
2022-08-18T08:16:32.182Z,14.17
2022-08-18T08:17:32.196Z,14.15
2022-08-18T08:18:32.209Z,14.18
2022-08-18T08:19:58.952Z,14.02
2022-08-18T08:20:32.652Z,13.97
2022-08-18T08:21:32.272Z,14.00
2022-08-18T08:22:32.282Z,14.24
2022-08-18T08:23:32.295Z,14.07
2022-08-18T08:24:32.301Z,13.92
2022-08-18T08:25:46.285Z,13.82
2022-08-18T08:26:32.334Z,14.06
2022-08-18T08:27:32.360Z,14.17
2022-08-18T08:28:32.374Z,14.21
2022-08-18T08:29:32.395Z,14.20
2022-08-18T08:30:32.490Z,13.88
2022-08-18T08:31:36.646Z,13.99
2022-08-18T08:32:32.422Z,14.14
2022-08-18T08:33:32.435Z,14.02
2022-08-18T08:34:32.466Z,13.91
2022-08-18T08:35:49.156Z,13.97
2022-08-18T08:36:32.478Z,14.15
2022-08-18T08:37:32.501Z,14.35
2022-08-18T08:38:43.026Z,14.60
2022-08-18T08:39:32.549Z,14.60
2022-08-18T08:40:32.537Z,14.65
2022-08-18T08:41:32.556Z,14.51
2022-08-18T08:42:35.369Z,14.46
2022-08-18T08:43:32.583Z,14.73
2022-08-18T08:44:32.618Z,15.01
2022-08-18T08:45:32.611Z,15.39
2022-08-18T08:46:32.629Z,15.46
2022-08-18T08:47:32.667Z,15.21
2022-08-18T08:48:32.660Z,15.34
2022-08-18T08:49:32.673Z,15.54
2022-08-18T08:50:32.690Z,14.99
2022-08-18T08:51:32.704Z,15.17
2022-08-18T08:52:32.719Z,14.99
2022-08-18T08:53:32.736Z,15.07
2022-08-18T08:54:32.749Z,15.25
2022-08-18T08:55:32.767Z,14.94
2022-08-18T08:56:32.778Z,14.92
2022-08-18T08:57:32.803Z,15.06
2022-08-18T08:58:32.813Z,15.07
2022-08-18T08:59:32.824Z,15.02
2022-08-18T09:00:32.841Z,15.13
2022-08-18T09:01:32.928Z,15.19
2022-08-18T09:02:47.202Z,15.29
2022-08-18T09:03:32.886Z,15.21
2022-08-18T09:04:32.931Z,15.16
2022-08-18T09:05:32.921Z,14.86
2022-08-18T09:06:32.936Z,14.80
2022-08-18T09:07:35.738Z,14.92
2022-08-18T09:08:32.985Z,15.02
2022-08-18T09:09:32.980Z,15.02
2022-08-18T09:10:32.996Z,15.06
2022-08-18T09:11:33.008Z,15.06
2022-08-18T09:12:33.034Z,15.19
2022-08-18T09:13:33.039Z,15.16
2022-08-18T09:14:33.060Z,15.07
2022-08-18T09:15:33.068Z,14.91
2022-08-18T09:16:33.089Z,14.94
2022-08-18T09:17:34.231Z,14.89
2022-08-18T09:18:33.119Z,15.01
2022-08-18T09:19:33.137Z,15.17
2022-08-18T09:20:33.152Z,15.25
2022-08-18T09:21:33.173Z,15.25
2022-08-18T09:22:33.182Z,15.25
2022-08-18T09:23:33.195Z,15.13
2022-08-18T09:24:33.218Z,15.25
2022-08-18T09:25:33.236Z,15.31
2022-08-18T09:26:36.222Z,15.16
2022-08-18T09:27:48.531Z,15.28
2022-08-18T09:28:33.284Z,15.28
2022-08-18T09:29:33.293Z,15.35
2022-08-18T09:30:33.310Z,15.23
2022-08-18T09:31:33.326Z,15.02
2022-08-18T09:32:33.340Z,15.16
2022-08-18T09:33:33.359Z,15.16
2022-08-18T09:34:33.369Z,14.95
2022-08-18T09:35:33.391Z,14.64
2022-08-18T09:36:33.403Z,14.77
2022-08-18T09:37:33.424Z,14.64
2022-08-18T09:38:33.439Z,14.70
2022-08-18T09:39:33.534Z,14.73
2022-08-18T09:41:33.493Z,14.92
2022-08-18T09:42:33.499Z,14.95
2022-08-18T09:43:33.517Z,15.17
2022-08-18T09:44:33.530Z,15.29
2022-08-18T09:45:34.297Z,15.38
2022-08-18T09:46:33.561Z,15.43
2022-08-18T09:47:33.591Z,15.43
2022-08-18T09:48:33.599Z,15.54
2022-08-18T09:49:38.040Z,15.50
2022-08-18T09:50:33.628Z,15.53
2022-08-18T09:51:33.652Z,15.27
2022-08-18T09:52:33.663Z,15.03
2022-08-18T09:53:33.778Z,14.95
2022-08-18T09:54:33.697Z,14.70
2022-08-18T09:55:33.709Z,14.88
2022-08-18T09:56:33.730Z,15.01
2022-08-18T09:57:43.785Z,15.16
2022-08-18T09:58:33.764Z,14.91
2022-08-18T09:59:34.462Z,15.02
2022-08-18T10:00:33.798Z,14.65
2022-08-18T10:01:33.820Z,14.83
2022-08-18T10:02:33.843Z,14.64
2022-08-18T10:03:33.849Z,14.64
2022-08-18T10:04:33.863Z,14.84
2022-08-18T10:05:33.874Z,14.91
2022-08-18T10:06:33.883Z,14.88
2022-08-18T10:07:38.831Z,14.94
2022-08-18T10:08:33.919Z,14.77
2022-08-18T10:09:36.542Z,14.88
2022-08-18T10:11:34.066Z,14.83
2022-08-18T10:12:33.981Z,14.95
2022-08-18T10:13:34.006Z,15.17
2022-08-18T10:14:34.024Z,14.96
2022-08-18T10:15:34.392Z,14.68
2022-08-18T10:17:34.064Z,14.36
2022-08-18T10:18:34.081Z,14.43
2022-08-18T10:19:39.958Z,14.42
2022-08-18T10:20:34.112Z,14.58
2022-08-18T10:21:34.126Z,14.52
2022-08-18T10:22:34.143Z,14.27
2022-08-18T10:23:42.807Z,14.37
2022-08-18T10:24:36.077Z,14.33
2022-08-18T10:25:34.188Z,14.17
2022-08-18T10:26:34.205Z,14.15
2022-08-18T10:27:34.218Z,14.21
2022-08-18T10:28:34.236Z,14.12
2022-08-18T10:29:34.256Z,14.15
2022-08-18T10:30:56.229Z,14.12
2022-08-18T10:31:34.284Z,14.25
2022-08-18T10:32:34.302Z,14.50
2022-08-18T10:33:34.317Z,14.62
2022-08-18T10:34:34.352Z,14.84
2022-08-18T10:35:34.346Z,14.84
2022-08-18T10:36:34.360Z,14.98
2022-08-18T10:37:34.376Z,15.10
2022-08-18T10:38:34.393Z,15.14
2022-08-18T10:39:34.500Z,15.06
2022-08-18T10:40:34.424Z,15.14
2022-08-18T10:41:34.443Z,15.06
2022-08-18T10:42:34.457Z,15.16
2022-08-18T10:43:54.991Z,15.16
2022-08-18T10:44:34.489Z,15.10
2022-08-18T10:45:34.505Z,15.06
2022-08-18T10:46:38.127Z,15.02
2022-08-18T10:47:34.536Z,15.19
2022-08-18T10:48:34.548Z,15.10
2022-08-18T10:49:34.570Z,15.16
2022-08-18T10:50:34.580Z,15.10
2022-08-18T10:51:37.784Z,14.99
2022-08-18T10:52:35.675Z,15.16
2022-08-18T10:53:38.971Z,15.14
2022-08-18T10:54:34.652Z,15.31
2022-08-18T10:56:34.675Z,15.28
2022-08-18T10:57:34.694Z,15.27
2022-08-18T10:58:34.721Z,15.21
2022-08-18T10:59:41.403Z,15.35
2022-08-18T11:00:34.742Z,15.44
2022-08-18T11:01:35.558Z,15.50
2022-08-18T11:02:34.777Z,15.59
2022-08-18T11:03:55.910Z,15.65
2022-08-18T11:04:37.090Z,15.51
2022-08-18T11:05:34.823Z,15.39
2022-08-18T11:06:34.843Z,14.95
2022-08-18T11:07:34.916Z,14.65
2022-08-18T11:08:36.891Z,14.60
2022-08-18T11:09:34.893Z,14.52
2022-08-18T11:10:50.585Z,14.29
2022-08-18T11:11:39.286Z,14.43
2022-08-18T11:12:34.935Z,14.47
2022-08-18T11:13:34.954Z,14.46
2022-08-18T11:14:34.971Z,14.69
2022-08-18T11:15:38.821Z,14.73
2022-08-18T11:16:34.997Z,14.88
2022-08-18T11:17:35.015Z,14.96
2022-08-18T11:19:35.051Z,14.72
2022-08-18T11:20:35.065Z,14.60
2022-08-18T11:21:42.395Z,14.50
2022-08-18T11:22:35.689Z,14.47
2022-08-18T11:23:35.109Z,14.47
2022-08-18T11:24:35.133Z,14.65
2022-08-18T11:25:35.151Z,14.61
2022-08-18T11:26:35.166Z,14.50
2022-08-18T11:27:35.172Z,14.57
2022-08-18T11:28:38.960Z,14.68
2022-08-18T11:29:35.208Z,14.69
2022-08-18T11:30:35.797Z,14.40
2022-08-18T11:31:35.241Z,14.46
2022-08-18T11:32:35.257Z,14.25
2022-08-18T11:33:37.560Z,14.17
2022-08-18T11:34:35.290Z,14.27
2022-08-18T11:35:35.306Z,14.25
2022-08-18T11:36:35.329Z,14.29
2022-08-18T11:38:35.358Z,14.35
2022-08-18T11:41:48.582Z,14.61
2022-08-18T11:42:35.420Z,14.52
2022-08-18T11:43:39.099Z,14.64
2022-08-18T11:44:35.450Z,14.46
2022-08-18T11:45:35.466Z,14.61
2022-08-18T11:46:35.478Z,14.60
2022-08-18T11:47:35.494Z,14.57
2022-08-18T11:49:35.526Z,14.68
2022-08-18T11:50:35.542Z,14.68
2022-08-18T11:51:35.609Z,14.73
2022-08-18T11:52:35.582Z,14.65
2022-08-18T11:53:35.592Z,14.62
2022-08-18T11:54:35.727Z,14.51
2022-08-18T11:55:35.618Z,14.45
2022-08-18T11:56:38.573Z,14.40
2022-08-18T11:57:35.652Z,14.43
2022-08-18T11:58:35.675Z,14.42
2022-08-18T11:59:54.840Z,14.46
2022-08-18T12:00:35.710Z,14.45
2022-08-18T12:01:41.565Z,14.50
2022-08-18T12:02:35.734Z,14.32
2022-08-18T12:03:35.748Z,14.22
2022-08-18T12:04:35.779Z,14.25
2022-08-18T12:05:45.949Z,14.18
2022-08-18T12:06:35.807Z,14.32
2022-08-18T12:07:35.838Z,14.24
2022-08-18T12:08:58.038Z,14.17
2022-08-18T12:10:35.859Z,13.95
2022-08-18T12:11:35.878Z,14.03
2022-08-18T12:12:36.021Z,14.12
2022-08-18T12:13:35.906Z,14.21
2022-08-18T12:14:35.923Z,14.21
2022-08-18T12:15:47.338Z,14.15
2022-08-18T12:16:35.950Z,14.21
2022-08-18T12:17:35.975Z,14.09
2022-08-18T12:18:35.985Z,14.04
2022-08-18T12:19:36.000Z,14.18
2022-08-18T12:20:36.025Z,14.17
2022-08-18T12:21:36.039Z,14.18
2022-08-18T12:22:36.049Z,14.21
2022-08-18T12:23:38.942Z,14.29
2022-08-18T12:24:39.101Z,14.35
2022-08-18T12:25:36.097Z,14.37
2022-08-18T12:26:39.020Z,14.37
2022-08-18T12:27:36.133Z,14.51
2022-08-18T12:28:36.142Z,14.62
2022-08-18T12:30:36.169Z,14.72
2022-08-18T12:31:42.596Z,14.72
2022-08-18T12:32:49.772Z,14.70
2022-08-18T12:33:48.239Z,14.70
2022-08-18T12:34:36.238Z,14.68
2022-08-18T12:35:36.254Z,14.70
2022-08-18T12:36:36.271Z,14.68
2022-08-18T12:37:59.106Z,14.60
2022-08-18T12:38:36.485Z,14.45
2022-08-18T12:39:36.345Z,14.40
2022-08-18T12:40:36.334Z,14.43
2022-08-18T12:41:36.347Z,14.29
2022-08-18T12:42:36.367Z,14.25
2022-08-18T12:43:36.380Z,14.03
2022-08-18T12:44:36.394Z,13.92
2022-08-18T12:45:37.992Z,13.92
2022-08-18T12:46:36.436Z,14.03
2022-08-18T12:47:36.440Z,14.00
2022-08-18T12:48:36.456Z,13.97
2022-08-18T12:49:36.473Z,14.00
2022-08-18T12:50:50.148Z,14.17
2022-08-18T12:51:36.502Z,14.33
2022-08-18T12:52:36.522Z,14.47
2022-08-18T12:53:38.077Z,14.45
2022-08-18T12:54:36.550Z,14.52
2022-08-18T12:55:37.707Z,14.35
2022-08-18T12:56:36.587Z,14.27
2022-08-18T12:58:36.634Z,14.22
2022-08-18T12:59:37.528Z,14.06
2022-08-18T13:00:36.641Z,14.00
2022-08-18T13:01:36.827Z,14.07
2022-08-18T13:02:36.778Z,14.07
2022-08-18T13:03:37.032Z,14.12
2022-08-18T13:04:36.754Z,14.20